sensor_id;sensor_type;location;lat;lon;timestamp;pressure;altitude;pressure_sealevel;temperature;humidity
49377;BME280;35253;34.688;33.040;2023-07-16T00:00:47;99855.28;;;35.61;41.30
49377;BME280;35253;34.688;33.040;2023-07-16T00:03:12;99861.41;;;35.68;40.93
49377;BME280;35253;34.688;33.040;2023-07-16T00:05:39;99862.53;;;35.72;40.71
49377;BME280;35253;34.688;33.040;2023-07-16T00:08:05;99851.16;;;35.74;40.08
49377;BME280;35253;34.688;33.040;2023-07-16T00:10:36;99853.97;;;35.89;39.61
49377;BME280;35253;34.688;33.040;2023-07-16T00:13:05;99847.88;;;36.02;38.91
49377;BME280;35253;34.688;33.040;2023-07-16T00:15:30;99849.25;;;35.94;38.94
49377;BME280;35253;34.688;33.040;2023-07-16T00:17:56;99845.09;;;36.07;38.12
49377;BME280;35253;34.688;33.040;2023-07-16T00:20:22;99845.38;;;36.10;38.28
49377;BME280;35253;34.688;33.040;2023-07-16T00:22:51;99849.25;;;36.09;38.12
49377;BME280;35253;34.688;33.040;2023-07-16T00:25:17;99837.34;;;36.14;37.46
49377;BME280;35253;34.688;33.040;2023-07-16T00:27:43;99841.22;;;36.13;37.84
49377;BME280;35253;34.688;33.040;2023-07-16T00:30:09;99834.56;;;36.19;36.80
49377;BME280;35253;34.688;33.040;2023-07-16T00:32:35;99838.19;;;36.25;36.90
49377;BME280;35253;34.688;33.040;2023-07-16T00:35:01;99844.84;;;36.29;36.59
49377;BME280;35253;34.688;33.040;2023-07-16T00:37:27;99835.38;;;36.35;36.40
49377;BME280;35253;34.688;33.040;2023-07-16T00:39:52;99833.75;;;36.29;36.37
49377;BME280;35253;34.688;33.040;2023-07-16T00:42:18;99840.66;;;36.31;36.13
49377;BME280;35253;34.688;33.040;2023-07-16T00:44:44;99841.75;;;36.25;35.94
49377;BME280;35253;34.688;33.040;2023-07-16T00:47:10;99842.59;;;36.21;36.27
49377;BME280;35253;34.688;33.040;2023-07-16T00:49:37;99835.94;;;36.27;35.46
49377;BME280;35253;34.688;33.040;2023-07-16T00:52:05;99835.94;;;36.27;35.64
49377;BME280;35253;34.688;33.040;2023-07-16T00:54:31;99824.28;;;36.30;35.54
49377;BME280;35253;34.688;33.040;2023-07-16T00:56:57;99832.59;;;36.30;35.42
49377;BME280;35253;34.688;33.040;2023-07-16T00:59:22;99833.75;;;36.29;35.19
49377;BME280;35253;34.688;33.040;2023-07-16T01:01:48;99834.56;;;36.19;35.45
49377;BME280;35253;34.688;33.040;2023-07-16T01:04:14;99830.66;;;36.25;34.79
49377;BME280;35253;34.688;33.040;2023-07-16T01:06:47;99830.97;;;36.24;34.86
49377;BME280;35253;34.688;33.040;2023-07-16T01:09:18;99833.16;;;36.17;34.71
49377;BME280;35253;34.688;33.040;2023-07-16T01:11:45;99830.13;;;36.13;34.80
49377;BME280;35253;34.688;33.040;2023-07-16T01:14:12;99839.25;;;35.98;35.41
49377;BME280;35253;34.688;33.040;2023-07-16T01:16:38;99829.56;;;36.06;34.75
49377;BME280;35253;34.688;33.040;2023-07-16T01:19:04;99834.53;;;35.99;34.88
49377;BME280;35253;34.688;33.040;2023-07-16T01:24:23;99842.31;;;35.87;34.90
49377;BME280;35253;34.688;33.040;2023-07-16T01:29:36;99838.16;;;35.79;35.14
49377;BME280;35253;34.688;33.040;2023-07-16T01:32:05;99843.97;;;35.78;35.05
49377;BME280;35253;34.688;33.040;2023-07-16T01:34:34;99850.31;;;35.68;35.15
49377;BME280;35253;34.688;33.040;2023-07-16T01:37:01;99845.03;;;35.61;35.19
49377;BME280;35253;34.688;33.040;2023-07-16T01:39:27;99844.25;;;35.71;35.00
49377;BME280;35253;34.688;33.040;2023-07-16T01:41:53;99842.00;;;35.63;35.30
49377;BME280;35253;34.688;33.040;2023-07-16T01:44:19;99838.13;;;35.64;35.02
49377;BME280;35253;34.688;33.040;2023-07-16T01:46:53;99828.69;;;35.85;34.89
49377;BME280;35253;34.688;33.040;2023-07-16T01:49:25;99833.72;;;35.88;34.64
49377;BME280;35253;34.688;33.040;2023-07-16T01:51:51;99831.22;;;35.87;34.56
49377;BME280;35253;34.688;33.040;2023-07-16T01:54:17;99830.66;;;35.80;34.56
49377;BME280;35253;34.688;33.040;2023-07-16T01:56:42;99830.38;;;35.81;34.98
49377;BME280;35253;34.688;33.040;2023-07-16T01:59:08;99833.16;;;35.71;35.15
49377;BME280;35253;34.688;33.040;2023-07-16T02:01:33;99834.50;;;35.58;35.17
49377;BME280;35253;34.688;33.040;2023-07-16T02:03:59;99825.66;;;35.66;35.15
49377;BME280;35253;34.688;33.040;2023-07-16T02:06:24;99824.81;;;35.66;35.40
49377;BME280;35253;34.688;33.040;2023-07-16T02:08:50;99834.25;;;35.65;35.23
49377;BME280;35253;34.688;33.040;2023-07-16T02:11:16;99831.16;;;35.56;35.09
49377;BME280;35253;34.688;33.040;2023-07-16T02:13:41;99831.97;;;35.47;35.35
49377;BME280;35253;34.688;33.040;2023-07-16T02:16:07;99836.97;;;35.60;35.31
49377;BME280;35253;34.688;33.040;2023-07-16T02:18:32;99826.41;;;35.47;35.36
49377;BME280;35253;34.688;33.040;2023-07-16T02:20:58;99836.38;;;35.43;36.12
49377;BME280;35253;34.688;33.040;2023-07-16T02:23:24;99835.28;;;35.39;35.99
49377;BME280;35253;34.688;33.040;2023-07-16T02:25:49;99841.22;;;35.00;36.94
49377;BME280;35253;34.688;33.040;2023-07-16T02:28:15;99848.63;;;34.90;37.46
49377;BME280;35253;34.688;33.040;2023-07-16T02:30:41;99837.28;;;34.86;38.17
49377;BME280;35253;34.688;33.040;2023-07-16T02:33:07;99837.00;;;34.88;37.41
49377;BME280;35253;34.688;33.040;2023-07-16T02:35:32;99839.44;;;34.74;37.94
49377;BME280;35253;34.688;33.040;2023-07-16T02:37:58;99844.19;;;34.83;37.39
49377;BME280;35253;34.688;33.040;2023-07-16T02:40:24;99841.09;;;34.80;38.50
49377;BME280;35253;34.688;33.040;2023-07-16T02:42:49;99843.84;;;34.33;40.87
49377;BME280;35253;34.688;33.040;2023-07-16T02:45:15;99852.34;;;34.21;43.11
49377;BME280;35253;34.688;33.040;2023-07-16T02:47:40;99864.00;;;34.28;43.22
49377;BME280;35253;34.688;33.040;2023-07-16T02:50:06;99863.41;;;34.21;43.93
49377;BME280;35253;34.688;33.040;2023-07-16T02:52:32;99862.69;;;34.04;45.60
49377;BME280;35253;34.688;33.040;2023-07-16T02:54:58;99862.00;;;33.87;47.80
49377;BME280;35253;34.688;33.040;2023-07-16T02:57:23;99859.03;;;33.99;49.82
49377;BME280;35253;34.688;33.040;2023-07-16T02:59:49;99853.81;;;34.02;51.25
49377;BME280;35253;34.688;33.040;2023-07-16T03:02:14;99865.81;;;34.13;52.33
49377;BME280;35253;34.688;33.040;2023-07-16T03:04:40;99869.91;;;34.05;53.15
49377;BME280;35253;34.688;33.040;2023-07-16T03:07:07;99871.47;;;33.96;52.16
49377;BME280;35253;34.688;33.040;2023-07-16T03:09:32;99881.38;;;34.19;48.96
49377;BME280;35253;34.688;33.040;2023-07-16T03:11:58;99896.19;;;34.34;48.41
49377;BME280;35253;34.688;33.040;2023-07-16T03:14:23;99902.25;;;34.36;47.85
49377;BME280;35253;34.688;33.040;2023-07-16T03:16:49;99905.66;;;34.44;48.25
49377;BME280;35253;34.688;33.040;2023-07-16T03:19:15;99907.06;;;34.46;48.21
49377;BME280;35253;34.688;33.040;2023-07-16T03:21:40;99913.50;;;34.57;48.64
49377;BME280;35253;34.688;33.040;2023-07-16T03:24:06;99915.88;;;34.75;48.21
49377;BME280;35253;34.688;33.040;2023-07-16T03:26:31;99910.31;;;34.70;47.36
49377;BME280;35253;34.688;33.040;2023-07-16T03:28:57;99913.38;;;34.73;47.96
49377;BME280;35253;34.688;33.040;2023-07-16T03:31:23;99913.13;;;34.75;47.61
49377;BME280;35253;34.688;33.040;2023-07-16T03:33:48;99919.25;;;34.82;47.10
49377;BME280;35253;34.688;33.040;2023-07-16T03:36:14;99923.72;;;34.88;47.27
49377;BME280;35253;34.688;33.040;2023-07-16T03:38:39;99928.16;;;34.94;48.14
49377;BME280;35253;34.688;33.040;2023-07-16T03:41:05;99922.69;;;35.04;47.47
49377;BME280;35253;34.688;33.040;2023-07-16T03:43:31;99930.50;;;35.12;47.07
49377;BME280;35253;34.688;33.040;2023-07-16T03:45:56;99918.00;;;35.05;46.90
49377;BME280;35253;34.688;33.040;2023-07-16T03:48:22;99920.00;;;35.19;46.53
49377;BME280;35253;34.688;33.040;2023-07-16T03:50:48;99931.16;;;35.30;47.58
49377;BME280;35253;34.688;33.040;2023-07-16T03:53:13;99925.06;;;35.33;47.83
49377;BME280;35253;34.688;33.040;2023-07-16T03:55:39;99932.28;;;35.34;49.00
49377;BME280;35253;34.688;33.040;2023-07-16T03:58:04;99926.22;;;35.37;48.54
49377;BME280;35253;34.688;33.040;2023-07-16T04:00:30;99933.72;;;35.41;47.96
49377;BME280;35253;34.688;33.040;2023-07-16T04:02:56;99929.28;;;35.45;46.72
49377;BME280;35253;34.688;33.040;2023-07-16T04:05:22;99935.69;;;35.56;45.97
49377;BME280;35253;34.688;33.040;2023-07-16T04:07:47;99939.31;;;35.61;45.98
49377;BME280;35253;34.688;33.040;2023-07-16T04:10:13;99931.53;;;35.63;44.73
49377;BME280;35253;34.688;33.040;2023-07-16T04:12:38;99939.06;;;35.68;43.72
49377;BME280;35253;34.688;33.040;2023-07-16T04:15:08;99941.63;;;35.80;41.48
49377;BME280;35253;34.688;33.040;2023-07-16T04:17:36;99939.41;;;35.92;40.15
49377;BME280;35253;34.688;33.040;2023-07-16T04:20:01;99942.22;;;36.07;38.20
49377;BME280;35253;34.688;33.040;2023-07-16T04:22:28;99943.66;;;36.20;37.67
49377;BME280;35253;34.688;33.040;2023-07-16T04:24:53;99954.69;;;35.94;47.69
49377;BME280;35253;34.688;33.040;2023-07-16T04:27:19;99959.72;;;36.12;50.09
49377;BME280;35253;34.688;33.040;2023-07-16T04:29:45;99955.13;;;35.61;55.32
49377;BME280;35253;34.688;33.040;2023-07-16T04:32:10;99965.03;;;35.47;57.28
49377;BME280;35253;34.688;33.040;2023-07-16T04:34:36;99963.88;;;35.33;58.13
49377;BME280;35253;34.688;33.040;2023-07-16T04:37:02;99956.19;;;35.55;57.45
49377;BME280;35253;34.688;33.040;2023-07-16T04:39:27;99959.50;;;35.47;58.39
49377;BME280;35253;34.688;33.040;2023-07-16T04:41:53;99955.91;;;35.51;58.77
49377;BME280;35253;34.688;33.040;2023-07-16T04:44:19;99967.13;;;35.72;57.54
49377;BME280;35253;34.688;33.040;2023-07-16T04:46:44;99971.31;;;35.84;53.50
49377;BME280;35253;34.688;33.040;2023-07-16T04:49:10;99965.25;;;35.97;52.19
49377;BME280;35253;34.688;33.040;2023-07-16T04:51:35;99963.09;;;36.20;52.71
49377;BME280;35253;34.688;33.040;2023-07-16T04:54:01;99974.47;;;36.23;51.42
49377;BME280;35253;34.688;33.040;2023-07-16T04:56:27;99973.09;;;36.41;50.59
49377;BME280;35253;34.688;33.040;2023-07-16T04:58:52;99979.19;;;36.48;51.78
49377;BME280;35253;34.688;33.040;2023-07-16T05:01:18;99978.13;;;36.64;52.87
49377;BME280;35253;34.688;33.040;2023-07-16T05:03:45;99972.53;;;36.54;56.32
49377;BME280;35253;34.688;33.040;2023-07-16T05:06:11;99973.91;;;36.56;58.64
49377;BME280;35253;34.688;33.040;2023-07-16T05:08:37;99972.53;;;36.54;57.32
49377;BME280;35253;34.688;33.040;2023-07-16T05:11:03;99980.03;;;36.58;56.23
49377;BME280;35253;34.688;33.040;2023-07-16T05:13:29;99980.91;;;36.64;55.43
49377;BME280;35253;34.688;33.040;2023-07-16T05:15:54;99973.66;;;36.73;55.69
49377;BME280;35253;34.688;33.040;2023-07-16T05:18:20;99977.56;;;36.62;55.74
49377;BME280;35253;34.688;33.040;2023-07-16T05:20:49;99979.50;;;36.77;56.21
49377;BME280;35253;34.688;33.040;2023-07-16T05:23:15;99975.59;;;36.78;56.65
49377;BME280;35253;34.688;33.040;2023-07-16T05:25:48;99978.09;;;36.79;57.73
49377;BME280;35253;34.688;33.040;2023-07-16T05:28:15;99970.06;;;36.68;60.97
49377;BME280;35253;34.688;33.040;2023-07-16T05:30:40;99968.09;;;36.73;62.49
49377;BME280;35253;34.688;33.040;2023-07-16T05:33:06;99965.88;;;36.65;64.07
49377;BME280;35253;34.688;33.040;2023-07-16T05:35:32;99973.94;;;36.72;71.66
49377;BME280;35253;34.688;33.040;2023-07-16T05:37:57;99974.50;;;36.79;82.11
49377;BME280;35253;34.688;33.040;2023-07-16T05:40:23;99976.44;;;36.58;91.10
49377;BME280;35253;34.688;33.040;2023-07-16T05:42:48;99980.88;;;36.54;98.53
49377;BME280;35253;34.688;33.040;2023-07-16T05:45:14;99979.78;;;36.50;98.70
49377;BME280;35253;34.688;33.040;2023-07-16T05:47:40;99980.31;;;36.27;100.00
49377;BME280;35253;34.688;33.040;2023-07-16T05:50:06;99985.03;;;36.31;100.00
49377;BME280;35253;34.688;33.040;2023-07-16T05:52:32;99978.34;;;36.17;100.00
49377;BME280;35253;34.688;33.040;2023-07-16T05:54:57;99976.31;;;35.87;100.00
49377;BME280;35253;34.688;33.040;2023-07-16T05:57:23;99981.41;;;36.31;100.00
49377;BME280;35253;34.688;33.040;2023-07-16T05:59:49;99983.94;;;36.32;100.00
49377;BME280;35253;34.688;33.040;2023-07-16T06:02:14;99984.75;;;36.43;100.00
49377;BME280;35253;34.688;33.040;2023-07-16T06:04:40;99987.78;;;36.51;99.19
49377;BME280;35253;34.688;33.040;2023-07-16T06:07:06;99981.75;;;36.60;100.00
49377;BME280;35253;34.688;33.040;2023-07-16T06:09:32;99982.53;;;36.45;99.68
49377;BME280;35253;34.688;33.040;2023-07-16T06:11:58;99980.88;;;36.54;100.00
49377;BME280;35253;34.688;33.040;2023-07-16T06:14:24;99977.00;;;36.75;96.70
49377;BME280;35253;34.688;33.040;2023-07-16T06:16:49;99975.84;;;36.91;94.36
49377;BME280;35253;34.688;33.040;2023-07-16T06:19:15;99975.31;;;36.94;84.14
49377;BME280;35253;34.688;33.040;2023-07-16T06:21:41;99976.38;;;37.19;80.51
49377;BME280;35253;34.688;33.040;2023-07-16T06:24:06;99969.66;;;37.35;75.41
49377;BME280;35253;34.688;33.040;2023-07-16T06:26:32;99974.06;;;37.51;68.53
49377;BME280;35253;34.688;33.040;2023-07-16T06:28:57;99971.22;;;37.66;67.12
49377;BME280;35253;34.688;33.040;2023-07-16T06:31:23;99967.94;;;37.54;70.61
49377;BME280;35253;34.688;33.040;2023-07-16T06:33:49;99965.75;;;37.36;90.19
49377;BME280;35253;34.688;33.040;2023-07-16T06:36:16;99966.34;;;37.23;91.58
49377;BME280;35253;34.688;33.040;2023-07-16T06:38:41;99962.16;;;37.30;92.26
49377;BME280;35253;34.688;33.040;2023-07-16T06:41:07;99962.50;;;37.14;91.95
49377;BME280;35253;34.688;33.040;2023-07-16T06:43:33;99963.63;;;36.92;92.34
49377;BME280;35253;34.688;33.040;2023-07-16T06:45:58;99960.28;;;36.95;90.21
49377;BME280;35253;34.688;33.040;2023-07-16T06:48:24;99961.97;;;37.07;87.15
49377;BME280;35253;34.688;33.040;2023-07-16T06:50:50;99961.97;;;37.07;85.00
49377;BME280;35253;34.688;33.040;2023-07-16T06:53:16;99964.19;;;37.10;84.72
49377;BME280;35253;34.688;33.040;2023-07-16T06:55:42;99960.03;;;37.12;82.15
49377;BME280;35253;34.688;33.040;2023-07-16T06:58:10;99960.03;;;37.12;80.82
49377;BME280;35253;34.688;33.040;2023-07-16T07:00:37;99967.22;;;37.13;80.66
49377;BME280;35253;34.688;33.040;2023-07-16T07:03:02;99966.69;;;37.11;81.45
49377;BME280;35253;34.688;33.040;2023-07-16T07:05:28;99966.41;;;37.08;83.13
49377;BME280;35253;34.688;33.040;2023-07-16T07:07:54;99969.44;;;37.01;83.69
49377;BME280;35253;34.688;33.040;2023-07-16T07:10:20;99975.56;;;37.08;84.51
49377;BME280;35253;34.688;33.040;2023-07-16T07:12:45;99977.78;;;36.91;82.52
49377;BME280;35253;34.688;33.040;2023-07-16T07:15:11;99978.94;;;36.90;82.82
49377;BME280;35253;34.688;33.040;2023-07-16T07:17:36;99972.00;;;36.72;87.68
49377;BME280;35253;34.688;33.040;2023-07-16T07:20:03;99972.28;;;36.76;90.67
49377;BME280;35253;34.688;33.040;2023-07-16T07:22:29;99979.78;;;36.70;86.43
49377;BME280;35253;34.688;33.040;2023-07-16T07:24:54;99981.19;;;36.73;83.80
49377;BME280;35253;34.688;33.040;2023-07-16T07:27:20;99979.78;;;36.75;84.32
49377;BME280;35253;34.688;33.040;2023-07-16T07:29:45;99978.66;;;36.76;85.80
49377;BME280;35253;34.688;33.040;2023-07-16T07:32:19;99986.44;;;36.74;82.71
49377;BME280;35253;34.688;33.040;2023-07-16T07:34:45;99981.19;;;36.73;83.95
49377;BME280;35253;34.688;33.040;2023-07-16T07:37:11;99984.50;;;36.85;81.89
49377;BME280;35253;34.688;33.040;2023-07-16T07:39:37;99991.69;;;36.91;82.06
49377;BME280;35253;34.688;33.040;2023-07-16T07:42:02;99996.13;;;37.17;82.48
49377;BME280;35253;34.688;33.040;2023-07-16T07:44:28;99989.47;;;37.03;84.15
49377;BME280;35253;34.688;33.040;2023-07-16T07:46:54;99984.47;;;37.10;85.43
49377;BME280;35253;34.688;33.040;2023-07-16T07:49:19;99995.88;;;37.03;87.64
49377;BME280;35253;34.688;33.040;2023-07-16T07:51:45;99998.66;;;36.98;90.33
49377;BME280;35253;34.688;33.040;2023-07-16T07:54:12;99994.19;;;37.02;91.20
49377;BME280;35253;34.688;33.040;2023-07-16T07:56:38;99990.88;;;37.06;93.14
49377;BME280;35253;34.688;33.040;2023-07-16T07:59:04;99997.53;;;37.20;96.11
49377;BME280;35253;34.688;33.040;2023-07-16T08:01:30;100000.03;;;37.16;96.82
49377;BME280;35253;34.688;33.040;2023-07-16T08:03:55;99993.91;;;37.09;98.48
49377;BME280;35253;34.688;33.040;2023-07-16T08:06:21;99998.91;;;37.02;100.00
49377;BME280;35253;34.688;33.040;2023-07-16T08:08:46;99997.56;;;36.84;100.00
49377;BME280;35253;34.688;33.040;2023-07-16T08:11:12;100004.22;;;36.73;100.00
49377;BME280;35253;34.688;33.040;2023-07-16T08:13:38;99998.69;;;36.68;100.00
49377;BME280;35253;34.688;33.040;2023-07-16T08:16:03;100007.00;;;36.73;98.25
49377;BME280;35253;34.688;33.040;2023-07-16T08:18:30;100005.88;;;36.84;97.54
49377;BME280;35253;34.688;33.040;2023-07-16T08:20:55;100009.50;;;36.90;99.24
49377;BME280;35253;34.688;33.040;2023-07-16T08:23:21;100012.81;;;36.92;100.00
49377;BME280;35253;34.688;33.040;2023-07-16T08:25:46;100009.78;;;36.93;99.90
49377;BME280;35253;34.688;33.040;2023-07-16T08:28:12;100019.75;;;37.04;100.00
49377;BME280;35253;34.688;33.040;2023-07-16T08:30:38;100018.91;;;37.04;100.00
49377;BME280;35253;34.688;33.040;2023-07-16T08:33:03;100011.94;;;37.22;100.00
49377;BME280;35253;34.688;33.040;2023-07-16T08:35:29;100015.31;;;37.19;100.00
49377;BME280;35253;34.688;33.040;2023-07-16T08:37:55;100018.91;;;37.24;99.61
49377;BME280;35253;34.688;33.040;2023-07-16T08:40:20;100022.53;;;37.30;97.97
49377;BME280;35253;34.688;33.040;2023-07-16T08:42:47;100015.56;;;37.17;100.00
49377;BME280;35253;34.688;33.040;2023-07-16T08:45:14;100014.78;;;37.07;100.00
49377;BME280;35253;34.688;33.040;2023-07-16T08:47:41;100011.41;;;37.20;100.00
49377;BME280;35253;34.688;33.040;2023-07-16T08:50:07;100010.34;;;37.06;100.00
49377;BME280;35253;34.688;33.040;2023-07-16T08:52:32;100011.13;;;36.96;100.00
49377;BME280;35253;34.688;33.040;2023-07-16T08:54:58;100011.97;;;36.96;100.00
49377;BME280;35253;34.688;33.040;2023-07-16T08:57:24;100008.94;;;36.78;100.00
49377;BME280;35253;34.688;33.040;2023-07-16T08:59:51;100010.59;;;36.89;100.00
49377;BME280;35253;34.688;33.040;2023-07-16T09:02:20;100014.53;;;36.68;100.00
49377;BME280;35253;34.688;33.040;2023-07-16T09:04:47;100014.25;;;36.64;100.00
49377;BME280;35253;34.688;33.040;2023-07-16T09:07:14;100023.13;;;36.61;100.00
49377;BME280;35253;34.688;33.040;2023-07-16T09:09:40;100024.47;;;36.53;100.00
49377;BME280;35253;34.688;33.040;2023-07-16T09:12:06;100027.78;;;36.55;100.00
49377;BME280;35253;34.688;33.040;2023-07-16T09:14:32;100020.88;;;36.58;100.00
49377;BME280;35253;34.688;33.040;2023-07-16T09:16:57;100023.38;;;36.75;100.00
49377;BME280;35253;34.688;33.040;2023-07-16T09:19:25;100030.91;;;36.79;100.00
49377;BME280;35253;34.688;33.040;2023-07-16T09:21:51;100027.81;;;36.96;100.00
49377;BME280;35253;34.688;33.040;2023-07-16T09:24:18;100028.13;;;36.74;100.00
49377;BME280;35253;34.688;33.040;2023-07-16T09:26:52;100027.00;;;36.85;100.00
49377;BME280;35253;34.688;33.040;2023-07-16T09:29:18;100027.56;;;36.72;100.00
49377;BME280;35253;34.688;33.040;2023-07-16T09:32:00;100030.06;;;36.64;100.00
49377;BME280;35253;34.688;33.040;2023-07-16T09:34:28;100033.13;;;36.67;100.00
49377;BME280;35253;34.688;33.040;2023-07-16T09:36:54;100035.91;;;36.77;100.00
49377;BME280;35253;34.688;33.040;2023-07-16T09:39:20;100042.00;;;36.84;100.00
49377;BME280;35253;34.688;33.040;2023-07-16T09:41:47;100048.69;;;36.98;100.00
49377;BME280;35253;34.688;33.040;2023-07-16T09:44:14;100047.28;;;36.91;99.76
49377;BME280;35253;34.688;33.040;2023-07-16T09:46:40;100050.91;;;36.76;92.05
49377;BME280;35253;34.688;33.040;2023-07-16T09:49:07;100052.56;;;36.97;92.05
49377;BME280;35253;34.688;33.040;2023-07-16T09:51:35;100047.84;;;37.18;92.13
49377;BME280;35253;34.688;33.040;2023-07-16T09:54:02;100050.53;;;37.43;90.51
49377;BME280;35253;34.688;33.040;2023-07-16T09:56:34;100048.59;;;37.59;89.23
49377;BME280;35253;34.688;33.040;2023-07-16T09:59:01;100034.69;;;37.49;88.88
49377;BME280;35253;34.688;33.040;2023-07-16T10:01:29;100041.16;;;37.24;90.66
49377;BME280;35253;34.688;33.040;2023-07-16T10:03:55;100048.59;;;37.49;91.55
49377;BME280;35253;34.688;33.040;2023-07-16T10:06:20;100050.22;;;37.65;90.60
49377;BME280;35253;34.688;33.040;2023-07-16T10:08:50;100039.13;;;37.50;88.27
49377;BME280;35253;34.688;33.040;2023-07-16T10:11:17;100043.03;;;37.64;89.39
49377;BME280;35253;34.688;33.040;2023-07-16T10:13:48;100038.06;;;37.36;89.19
49377;BME280;35253;34.688;33.040;2023-07-16T10:16:22;100054.16;;;37.59;90.83
49377;BME280;35253;34.688;33.040;2023-07-16T10:18:52;100044.06;;;37.78;92.52
49377;BME280;35253;34.688;33.040;2023-07-16T10:21:24;100043.00;;;37.69;86.17
49377;BME280;35253;34.688;33.040;2023-07-16T10:23:58;100037.63;;;37.83;85.87
49377;BME280;35253;34.688;33.040;2023-07-16T10:26:29;100046.75;;;38.09;84.90
49377;BME280;35253;34.688;33.040;2023-07-16T10:28:55;100051.53;;;38.47;83.84
49377;BME280;35253;34.688;33.040;2023-07-16T10:31:23;100049.50;;;38.58;81.89
49377;BME280;35253;34.688;33.040;2023-07-16T10:34:02;100054.31;;;38.81;79.82
49377;BME280;35253;34.688;33.040;2023-07-16T10:36:40;100055.41;;;38.85;80.41
49377;BME280;35253;34.688;33.040;2023-07-16T10:39:06;100062.56;;;38.62;82.11
49377;BME280;35253;34.688;33.040;2023-07-16T10:41:32;100063.91;;;38.26;82.16
49377;BME280;35253;34.688;33.040;2023-07-16T10:43:58;100056.84;;;38.39;83.70
49377;BME280;35253;34.688;33.040;2023-07-16T10:46:24;100059.34;;;38.40;85.20
49377;BME280;35253;34.688;33.040;2023-07-16T10:48:50;100054.69;;;38.30;84.17
49377;BME280;35253;34.688;33.040;2023-07-16T10:51:16;100053.75;;;38.40;83.39
49377;BME280;35253;34.688;33.040;2023-07-16T10:53:43;100058.38;;;38.16;83.27
49377;BME280;35253;34.688;33.040;2023-07-16T10:56:09;100062.44;;;38.33;83.38
49377;BME280;35253;34.688;33.040;2023-07-16T10:58:37;100056.09;;;38.23;84.89
49377;BME280;35253;34.688;33.040;2023-07-16T11:01:03;100060.06;;;38.17;87.27
49377;BME280;35253;34.688;33.040;2023-07-16T11:03:29;100056.47;;;38.11;88.02
49377;BME280;35253;34.688;33.040;2023-07-16T11:05:54;100053.47;;;37.98;88.32
49377;BME280;35253;34.688;33.040;2023-07-16T11:08:24;100053.44;;;38.03;87.96
49377;BME280;35253;34.688;33.040;2023-07-16T11:10:54;100058.16;;;38.07;91.60
49377;BME280;35253;34.688;33.040;2023-07-16T11:13:27;100057.66;;;38.44;91.69
49377;BME280;35253;34.688;33.040;2023-07-16T11:15:53;100062.19;;;38.35;91.72
49377;BME280;35253;34.688;33.040;2023-07-16T11:18:22;100057.63;;;38.49;92.63
49377;BME280;35253;34.688;33.040;2023-07-16T11:20:52;100067.88;;;38.59;91.08
49377;BME280;35253;34.688;33.040;2023-07-16T11:23:18;100068.00;;;38.77;88.05
49377;BME280;35253;34.688;33.040;2023-07-16T11:25:47;100070.22;;;38.37;87.73
49377;BME280;35253;34.688;33.040;2023-07-16T11:28:13;100061.59;;;38.43;86.91
49377;BME280;35253;34.688;33.040;2023-07-16T11:30:39;100068.31;;;38.32;86.29
49377;BME280;35253;34.688;33.040;2023-07-16T11:33:10;100067.88;;;38.10;85.94
49377;BME280;35253;34.688;33.040;2023-07-16T11:35:36;100069.00;;;38.09;87.16
49377;BME280;35253;34.688;33.040;2023-07-16T11:38:04;100059.59;;;37.89;85.47
49377;BME280;35253;34.688;33.040;2023-07-16T11:40:30;100060.38;;;38.05;86.35
49377;BME280;35253;34.688;33.040;2023-07-16T11:42:56;100062.91;;;37.91;84.41
49377;BME280;35253;34.688;33.040;2023-07-16T11:45:24;100055.72;;;37.85;86.05
49377;BME280;35253;34.688;33.040;2023-07-16T11:47:52;100057.66;;;38.00;84.38
49377;BME280;35253;34.688;33.040;2023-07-16T11:50:17;100059.69;;;38.28;85.79
49377;BME280;35253;34.688;33.040;2023-07-16T11:52:52;100061.84;;;38.42;81.97
49377;BME280;35253;34.688;33.040;2023-07-16T11:55:19;100051.09;;;38.69;81.93
49377;BME280;35253;34.688;33.040;2023-07-16T11:57:44;100060.25;;;38.74;80.87
49377;BME280;35253;34.688;33.040;2023-07-16T12:00:10;100068.22;;;38.91;80.64
49377;BME280;35253;34.688;33.040;2023-07-16T12:02:37;100072.03;;;39.29;81.12
49377;BME280;35253;34.688;33.040;2023-07-16T12:05:03;100066.28;;;39.49;76.83
49377;BME280;35253;34.688;33.040;2023-07-16T12:07:32;100065.00;;;39.37;77.86
49377;BME280;35253;34.688;33.040;2023-07-16T12:09:58;100059.78;;;39.25;77.40
49377;BME280;35253;34.688;33.040;2023-07-16T12:12:24;100060.69;;;38.92;79.07
49377;BME280;35253;34.688;33.040;2023-07-16T12:14:49;100078.56;;;39.14;79.57
49377;BME280;35253;34.688;33.040;2023-07-16T12:17:15;100065.94;;;39.27;83.46
49377;BME280;35253;34.688;33.040;2023-07-16T12:19:41;100067.63;;;39.23;84.00
49377;BME280;35253;34.688;33.040;2023-07-16T12:22:06;100068.72;;;39.27;79.92
49377;BME280;35253;34.688;33.040;2023-07-16T12:24:32;100076.63;;;39.15;78.76
49377;BME280;35253;34.688;33.040;2023-07-16T12:26:57;100065.47;;;38.86;80.75
49377;BME280;35253;34.688;33.040;2023-07-16T12:29:23;100070.16;;;38.91;82.52
49377;BME280;35253;34.688;33.040;2023-07-16T12:31:49;100069.56;;;38.94;78.02
49377;BME280;35253;34.688;33.040;2023-07-16T12:34:15;100070.75;;;38.88;77.85
49377;BME280;35253;34.688;33.040;2023-07-16T12:36:41;100072.63;;;38.58;78.17
49377;BME280;35253;34.688;33.040;2023-07-16T12:39:06;100072.91;;;38.57;80.51
49377;BME280;35253;34.688;33.040;2023-07-16T12:41:32;100067.16;;;38.43;80.24
49377;BME280;35253;34.688;33.040;2023-07-16T12:43:58;100073.06;;;38.70;86.22
49377;BME280;35253;34.688;33.040;2023-07-16T12:46:23;100065.44;;;38.52;89.66